Catalina Flyer — WTD8887 — position and weather

sailwx.info

Track history (hours):
 
Tides and Currents Weather Stations Pressure Air Temp Water Temp Dewpoint Dewpoint Depression Visibility Wind Speed Wind Dir Waves Ship Positions

Catalina Flyer

Owner: CATALINA PASSENGER SERVICE INC, BALBOA, CA. More information available from US FCC via Universal Licensing System and Coast Guard Vessel Documentation Center.

Last reported at 2017-Nov-19 01:32 UTC. Time now 2017-Nov-19 08:20 UTC.
Position N 33°34' W 117°54'.

Length 36 m; draft 2.5 m.

Type: Passenger vessel. MMSI: 367001740.

Date/timePositionNaut miles runAvg speedWind from/ knotsBaromVisibWave heightAir tempDewpointWater temp
2017-Nov-19 01:32N 33°34' W 117°54'125.9
2017-Nov-19 01:31N 33°34' W 117°54'2126.3
2017-Nov-19 00:42N 33°22' W 118°16'3 6.3
2017-Nov-19 00:12N 33°21' W 118°19'0 0.2
2017-Nov-18 23:53N 33°21' W 118°19'0 0.0
2017-Nov-18 22:46N 33°21' W 118°19'0 0.1
2017-Nov-18 22:25N 33°21' W 118°19'0 0.1
2017-Nov-18 21:55N 33°21' W 118°19'22 0.8
2017-Nov-17 17:28N 33°32' W 117°57'3 0.2
2017-Nov-17 01:14N 33°31' W 118°01'1727.4
2017-Nov-17 00:36N 33°21' W 118°18'1 0.2
2017-Nov-16 18:16N 33°21' W 118°19'1425.6
2017-Nov-16 17:43N 33°28' W 118°05'526.8
2017-Nov-16 17:31N 33°31' W 117°59'3 0.2
2017-Nov-16 01:23N 33°33' W 117°56'1027.2
2017-Nov-16 01:00N 33°27' W 118°06'1311.8
2017-Nov-15 23:56N 33°21' W 118°19'0 0.0
2017-Nov-15 22:49N 33°21' W 118°19'0 0.0
2017-Nov-15 22:25N 33°21' W 118°19'0 0.0
2017-Nov-15 22:00N 33°21' W 118°19'0 0.0
2017-Nov-15 21:30N 33°21' W 118°19'0 0.1
2017-Nov-15 20:47N 33°21' W 118°19'1 0.6
2017-Nov-15 18:14N 33°22' W 118°18'626.7
2017-Nov-15 18:00N 33°25' W 118°12'1326.2
2017-Nov-15 17:30N 33°32' W 117°59'3 0.2
2017-Nov-15 01:13N 33°30' W 118°01'627.0
2017-Nov-15 01:00N 33°27' W 118°07'12 1.8
2017-Nov-14 18:19N 33°21' W 118°19'1223.7
2017-Nov-14 17:49N 33°27' W 118°08'15 0.9
2017-Nov-14 01:47N 33°36' W 117°54'2 6.6
2017-Nov-14 01:30N 33°34' W 117°54'1426.6
2017-Nov-14 00:57N 33°27' W 118°09'1123.6
2017-Nov-14 00:30N 33°21' W 118°19'9 0.4
2017-Nov-13 00:53N 33°25' W 118°10'6 0.9
2017-Nov-12 18:11N 33°22' W 118°17'1 0.1
2017-Nov-12 00:42N 33°23' W 118°16'1 0.0
2017-Nov-11 00:39N 33°22' W 118°17'  
Track history (hours):
 
Tides and Currents Weather Stations Pressure Air Temp Water Temp Dewpoint Dewpoint Depression Visibility Wind Speed Wind Dir Waves Ship Positions

Catalina Flyer

Owner: CATALINA PASSENGER SERVICE INC, BALBOA, CA. More information available from US FCC via Universal Licensing System and Coast Guard Vessel Documentation Center.

Last reported at 2017-Nov-19 01:32 UTC. Time now 2017-Nov-19 08:20 UTC.
Position N 33°34' W 117°54'.

Length 36 m; draft 2.5 m.

Type: Passenger vessel. MMSI: 367001740.

Date/timePositionNaut miles runAvg speedWind from/ knotsBaromVisibWave heightAir tempDewpointWater temp
2017-Nov-19 01:32N 33°34' W 117°54'125.9
2017-Nov-19 01:31N 33°34' W 117°54'2126.3
2017-Nov-19 00:42N 33°22' W 118°16'3 6.3
2017-Nov-19 00:12N 33°21' W 118°19'0 0.2
2017-Nov-18 23:53N 33°21' W 118°19'0 0.0
2017-Nov-18 22:46N 33°21' W 118°19'0 0.1
2017-Nov-18 22:25N 33°21' W 118°19'0 0.1
2017-Nov-18 21:55N 33°21' W 118°19'22 0.8
2017-Nov-17 17:28N 33°32' W 117°57'3 0.2
2017-Nov-17 01:14N 33°31' W 118°01'1727.4
2017-Nov-17 00:36N 33°21' W 118°18'1 0.2
2017-Nov-16 18:16N 33°21' W 118°19'1425.6
2017-Nov-16 17:43N 33°28' W 118°05'526.8
2017-Nov-16 17:31N 33°31' W 117°59'3 0.2
2017-Nov-16 01:23N 33°33' W 117°56'1027.2
2017-Nov-16 01:00N 33°27' W 118°06'1311.8
2017-Nov-15 23:56N 33°21' W 118°19'0 0.0
2017-Nov-15 22:49N 33°21' W 118°19'0 0.0
2017-Nov-15 22:25N 33°21' W 118°19'0 0.0
2017-Nov-15 22:00N 33°21' W 118°19'0 0.0
2017-Nov-15 21:30N 33°21' W 118°19'0 0.1
2017-Nov-15 20:47N 33°21' W 118°19'1 0.6
2017-Nov-15 18:14N 33°22' W 118°18'626.7
2017-Nov-15 18:00N 33°25' W 118°12'1326.2
2017-Nov-15 17:30N 33°32' W 117°59'3 0.2
2017-Nov-15 01:13N 33°30' W 118°01'627.0
2017-Nov-15 01:00N 33°27' W 118°07'12 1.8
2017-Nov-14 18:19N 33°21' W 118°19'1223.7
2017-Nov-14 17:49N 33°27' W 118°08'15 0.9
2017-Nov-14 01:47N 33°36' W 117°54'2 6.6
2017-Nov-14 01:30N 33°34' W 117°54'1426.6
2017-Nov-14 00:57N 33°27' W 118°09'1123.6
2017-Nov-14 00:30N 33°21' W 118°19'9 0.4
2017-Nov-13 00:53N 33°25' W 118°10'6 0.9
2017-Nov-12 18:11N 33°22' W 118°17'1 0.1
2017-Nov-12 00:42N 33°23' W 118°16'1 0.0
2017-Nov-11 00:39N 33°22' W 118°17'  

Dump ship's entire track history